Webbers Falls, Oklahoma
Current Conditions -  °F | °C
As of 4:15 AM on Friday 31 Oct 2014 (Local Time) from KGZL Reporting Station
Clear Clear  
Wind Chill: 46°   Ceiling: Unl
Heat Index: 46°   Visibility: 10mi
Dew Point: 37°   Wind: 3mph
Humidity: 71%   Direction: 330°NNW
Pressure: 30.21"   Gusts: NA
Location:  35.51°N, 95.13°W
Report Text: KGZL 310915Z AUTO 33003KT 10SM CLR 08/03 A3021 RMK AO2
Loading
Personal Weather Stations






























Interactive Weather Map
Tropical Storm Tracking
New forecast layout! Learn more

10-Day Weather Forecast

Advertisements
Track Severe Weather on mobile